sensor_id;sensor_type;location;lat;lon;timestamp;temperature;humidity
53272;DHT22;39160;48.580;7.756;2024-02-14T00:00:04;9.60;99.90
53272;DHT22;39160;48.580;7.756;2024-02-14T00:04:54;9.60;99.90
53272;DHT22;39160;48.580;7.756;2024-02-14T00:09:45;9.60;99.90
53272;DHT22;39160;48.580;7.756;2024-02-14T00:14:37;9.50;99.90
53272;DHT22;39160;48.580;7.756;2024-02-14T00:19:28;9.50;99.90
53272;DHT22;39160;48.580;7.756;2024-02-14T00:24:18;9.50;99.90
53272;DHT22;39160;48.580;7.756;2024-02-14T00:29:09;9.50;99.90
53272;DHT22;39160;48.580;7.756;2024-02-14T00:34:00;9.50;99.90
53272;DHT22;39160;48.580;7.756;2024-02-14T00:38:50;9.60;99.90
53272;DHT22;39160;48.580;7.756;2024-02-14T00:43:41;9.50;99.90
53272;DHT22;39160;48.580;7.756;2024-02-14T00:48:32;9.50;99.90
53272;DHT22;39160;48.580;7.756;2024-02-14T00:53:23;9.60;99.90
53272;DHT22;39160;48.580;7.756;2024-02-14T00:58:13;9.50;99.90
53272;DHT22;39160;48.580;7.756;2024-02-14T01:03:06;9.50;99.90
53272;DHT22;39160;48.580;7.756;2024-02-14T01:07:57;9.50;99.90
53272;DHT22;39160;48.580;7.756;2024-02-14T01:12:48;9.50;99.90
53272;DHT22;39160;48.580;7.756;2024-02-14T01:17:38;9.50;99.90
53272;DHT22;39160;48.580;7.756;2024-02-14T01:22:29;9.50;99.90
53272;DHT22;39160;48.580;7.756;2024-02-14T01:27:19;9.50;99.90
53272;DHT22;39160;48.580;7.756;2024-02-14T01:32:13;9.60;99.90
53272;DHT22;39160;48.580;7.756;2024-02-14T01:37:03;9.60;99.90
53272;DHT22;39160;48.580;7.756;2024-02-14T01:41:54;9.60;99.90
53272;DHT22;39160;48.580;7.756;2024-02-14T01:46:45;9.70;99.90
53272;DHT22;39160;48.580;7.756;2024-02-14T01:51:36;9.60;99.90
53272;DHT22;39160;48.580;7.756;2024-02-14T01:56:27;9.60;99.90
53272;DHT22;39160;48.580;7.756;2024-02-14T02:01:18;9.60;99.90
53272;DHT22;39160;48.580;7.756;2024-02-14T02:06:09;9.70;99.90
53272;DHT22;39160;48.580;7.756;2024-02-14T02:11:00;9.70;99.90
53272;DHT22;39160;48.580;7.756;2024-02-14T02:15:50;9.70;99.90
53272;DHT22;39160;48.580;7.756;2024-02-14T02:20:42;9.70;99.90
53272;DHT22;39160;48.580;7.756;2024-02-14T02:25:33;9.70;99.90
53272;DHT22;39160;48.580;7.756;2024-02-14T02:30:24;9.70;99.90
53272;DHT22;39160;48.580;7.756;2024-02-14T02:35:15;9.70;99.90
53272;DHT22;39160;48.580;7.756;2024-02-14T02:40:06;9.60;99.90
53272;DHT22;39160;48.580;7.756;2024-02-14T02:45:00;9.60;99.90
53272;DHT22;39160;48.580;7.756;2024-02-14T02:49:52;9.60;99.90
53272;DHT22;39160;48.580;7.756;2024-02-14T02:54:43;9.70;99.90
53272;DHT22;39160;48.580;7.756;2024-02-14T02:59:35;9.60;99.90
53272;DHT22;39160;48.580;7.756;2024-02-14T03:04:25;9.70;99.90
53272;DHT22;39160;48.580;7.756;2024-02-14T03:09:16;9.70;99.90
53272;DHT22;39160;48.580;7.756;2024-02-14T03:14:08;9.70;99.90
53272;DHT22;39160;48.580;7.756;2024-02-14T03:18:59;9.70;99.90
53272;DHT22;39160;48.580;7.756;2024-02-14T03:23:51;9.60;99.90
53272;DHT22;39160;48.580;7.756;2024-02-14T03:28:44;9.60;99.90
53272;DHT22;39160;48.580;7.756;2024-02-14T03:33:35;9.60;99.90
53272;DHT22;39160;48.580;7.756;2024-02-14T03:38:27;9.60;99.90
53272;DHT22;39160;48.580;7.756;2024-02-14T03:43:18;9.60;99.90
53272;DHT22;39160;48.580;7.756;2024-02-14T03:48:08;9.60;99.90
53272;DHT22;39160;48.580;7.756;2024-02-14T03:53:01;9.60;99.90
53272;DHT22;39160;48.580;7.756;2024-02-14T03:57:53;9.60;99.90
53272;DHT22;39160;48.580;7.756;2024-02-14T04:02:44;9.60;99.90
53272;DHT22;39160;48.580;7.756;2024-02-14T04:07:35;9.60;99.90
53272;DHT22;39160;48.580;7.756;2024-02-14T04:12:27;9.60;99.90
53272;DHT22;39160;48.580;7.756;2024-02-14T04:17:18;9.60;99.90
53272;DHT22;39160;48.580;7.756;2024-02-14T04:22:09;9.70;99.90
53272;DHT22;39160;48.580;7.756;2024-02-14T04:27:00;9.60;99.90
53272;DHT22;39160;48.580;7.756;2024-02-14T04:31:53;9.70;99.90
53272;DHT22;39160;48.580;7.756;2024-02-14T04:36:43;9.70;99.90
53272;DHT22;39160;48.580;7.756;2024-02-14T04:41:34;9.60;99.90
53272;DHT22;39160;48.580;7.756;2024-02-14T04:46:27;9.60;99.90
53272;DHT22;39160;48.580;7.756;2024-02-14T04:51:18;9.60;99.90
53272;DHT22;39160;48.580;7.756;2024-02-14T04:56:09;9.60;99.90
53272;DHT22;39160;48.580;7.756;2024-02-14T05:00:59;9.60;99.90
53272;DHT22;39160;48.580;7.756;2024-02-14T05:05:51;9.60;99.90
53272;DHT22;39160;48.580;7.756;2024-02-14T05:10:42;9.70;99.90
53272;DHT22;39160;48.580;7.756;2024-02-14T05:15:33;9.70;99.90
53272;DHT22;39160;48.580;7.756;2024-02-14T05:20:25;9.70;99.90
53272;DHT22;39160;48.580;7.756;2024-02-14T05:25:16;9.80;99.90
53272;DHT22;39160;48.580;7.756;2024-02-14T05:30:07;9.70;99.90
53272;DHT22;39160;48.580;7.756;2024-02-14T05:34:59;9.70;99.90
53272;DHT22;39160;48.580;7.756;2024-02-14T05:39:50;9.70;99.90
53272;DHT22;39160;48.580;7.756;2024-02-14T05:44:41;9.70;99.90
53272;DHT22;39160;48.580;7.756;2024-02-14T05:49:33;9.80;99.90
53272;DHT22;39160;48.580;7.756;2024-02-14T05:54:23;9.80;99.90
53272;DHT22;39160;48.580;7.756;2024-02-14T05:59:15;9.70;99.90
53272;DHT22;39160;48.580;7.756;2024-02-14T06:04:06;9.70;99.90
53272;DHT22;39160;48.580;7.756;2024-02-14T06:08:57;9.70;99.90
53272;DHT22;39160;48.580;7.756;2024-02-14T06:13:48;9.80;99.90
53272;DHT22;39160;48.580;7.756;2024-02-14T06:18:38;9.80;99.90
53272;DHT22;39160;48.580;7.756;2024-02-14T06:23:30;9.70;99.90
53272;DHT22;39160;48.580;7.756;2024-02-14T06:28:21;9.80;99.90
53272;DHT22;39160;48.580;7.756;2024-02-14T06:33:12;9.80;99.90
53272;DHT22;39160;48.580;7.756;2024-02-14T06:38:02;9.80;99.90
53272;DHT22;39160;48.580;7.756;2024-02-14T06:42:53;9.80;99.90
53272;DHT22;39160;48.580;7.756;2024-02-14T06:47:45;9.90;99.90
53272;DHT22;39160;48.580;7.756;2024-02-14T06:52:35;9.90;99.90
53272;DHT22;39160;48.580;7.756;2024-02-14T06:57:26;9.90;99.90
53272;DHT22;39160;48.580;7.756;2024-02-14T07:02:17;9.90;99.90
53272;DHT22;39160;48.580;7.756;2024-02-14T07:07:07;9.90;99.90
53272;DHT22;39160;48.580;7.756;2024-02-14T07:11:58;9.90;99.90
53272;DHT22;39160;48.580;7.756;2024-02-14T07:16:49;9.90;99.90
53272;DHT22;39160;48.580;7.756;2024-02-14T07:21:39;9.90;99.90
53272;DHT22;39160;48.580;7.756;2024-02-14T07:26:30;9.90;99.90
53272;DHT22;39160;48.580;7.756;2024-02-14T07:31:21;10.00;99.90
53272;DHT22;39160;48.580;7.756;2024-02-14T07:36:11;10.00;99.90
53272;DHT22;39160;48.580;7.756;2024-02-14T07:41:02;9.90;99.90
53272;DHT22;39160;48.580;7.756;2024-02-14T07:45:52;10.00;99.90
53272;DHT22;39160;48.580;7.756;2024-02-14T07:50:44;10.00;99.90
53272;DHT22;39160;48.580;7.756;2024-02-14T07:55:34;10.00;99.90
53272;DHT22;39160;48.580;7.756;2024-02-14T08:00:25;10.00;99.90
53272;DHT22;39160;48.580;7.756;2024-02-14T08:05:16;10.00;99.90
53272;DHT22;39160;48.580;7.756;2024-02-14T08:10:06;10.10;99.90
53272;DHT22;39160;48.580;7.756;2024-02-14T08:14:57;10.10;99.90
53272;DHT22;39160;48.580;7.756;2024-02-14T08:19:48;10.20;99.90
53272;DHT22;39160;48.580;7.756;2024-02-14T08:24:38;10.20;99.90
53272;DHT22;39160;48.580;7.756;2024-02-14T08:29:29;10.30;99.90
53272;DHT22;39160;48.580;7.756;2024-02-14T08:34:20;10.40;99.90
53272;DHT22;39160;48.580;7.756;2024-02-14T08:39:11;10.40;99.90
53272;DHT22;39160;48.580;7.756;2024-02-14T08:44:01;10.40;99.90
53272;DHT22;39160;48.580;7.756;2024-02-14T08:48:52;10.50;99.90
53272;DHT22;39160;48.580;7.756;2024-02-14T08:53:44;10.50;99.90
53272;DHT22;39160;48.580;7.756;2024-02-14T08:58:35;10.60;99.90
53272;DHT22;39160;48.580;7.756;2024-02-14T09:03:26;10.50;99.90
53272;DHT22;39160;48.580;7.756;2024-02-14T09:08:16;10.60;99.90
53272;DHT22;39160;48.580;7.756;2024-02-14T09:13:07;10.70;99.90
53272;DHT22;39160;48.580;7.756;2024-02-14T09:17:58;10.70;99.90
53272;DHT22;39160;48.580;7.756;2024-02-14T09:22:50;10.80;99.90
53272;DHT22;39160;48.580;7.756;2024-02-14T09:27:41;10.90;99.90
53272;DHT22;39160;48.580;7.756;2024-02-14T09:32:31;10.90;99.90
53272;DHT22;39160;48.580;7.756;2024-02-14T09:37:22;10.90;99.90
53272;DHT22;39160;48.580;7.756;2024-02-14T09:42:16;11.00;99.90
53272;DHT22;39160;48.580;7.756;2024-02-14T09:47:08;11.10;99.90
53272;DHT22;39160;48.580;7.756;2024-02-14T09:52:01;11.10;99.90
53272;DHT22;39160;48.580;7.756;2024-02-14T09:56:55;11.10;99.90
53272;DHT22;39160;48.580;7.756;2024-02-14T10:01:47;11.10;99.90
53272;DHT22;39160;48.580;7.756;2024-02-14T10:06:39;11.20;99.90
53272;DHT22;39160;48.580;7.756;2024-02-14T10:11:33;11.20;99.90
53272;DHT22;39160;48.580;7.756;2024-02-14T10:16:26;11.30;99.90
53272;DHT22;39160;48.580;7.756;2024-02-14T10:21:17;11.30;99.90
53272;DHT22;39160;48.580;7.756;2024-02-14T10:26:10;11.50;99.90
53272;DHT22;39160;48.580;7.756;2024-02-14T10:31:01;11.50;99.90
53272;DHT22;39160;48.580;7.756;2024-02-14T10:35:52;11.60;99.90
53272;DHT22;39160;48.580;7.756;2024-02-14T10:40:47;11.60;99.90
53272;DHT22;39160;48.580;7.756;2024-02-14T10:45:38;11.70;99.90
53272;DHT22;39160;48.580;7.756;2024-02-14T10:50:33;11.70;99.90
53272;DHT22;39160;48.580;7.756;2024-02-14T10:55:30;11.80;99.90
53272;DHT22;39160;48.580;7.756;2024-02-14T11:00:21;11.90;99.90
53272;DHT22;39160;48.580;7.756;2024-02-14T11:05:13;12.00;99.90
53272;DHT22;39160;48.580;7.756;2024-02-14T11:10:08;12.00;99.90
53272;DHT22;39160;48.580;7.756;2024-02-14T11:14:59;12.10;99.90
53272;DHT22;39160;48.580;7.756;2024-02-14T11:19:51;12.10;99.90
53272;DHT22;39160;48.580;7.756;2024-02-14T11:24:42;12.20;99.90
53272;DHT22;39160;48.580;7.756;2024-02-14T11:29:35;12.20;99.90
53272;DHT22;39160;48.580;7.756;2024-02-14T11:34:30;12.30;99.90
53272;DHT22;39160;48.580;7.756;2024-02-14T11:39:23;12.30;99.90
53272;DHT22;39160;48.580;7.756;2024-02-14T11:44:14;12.50;99.90
53272;DHT22;39160;48.580;7.756;2024-02-14T11:49:05;12.50;99.90
53272;DHT22;39160;48.580;7.756;2024-02-14T11:54:00;12.60;99.90
53272;DHT22;39160;48.580;7.756;2024-02-14T11:58:57;12.70;99.90
53272;DHT22;39160;48.580;7.756;2024-02-14T12:03:48;12.70;99.90
53272;DHT22;39160;48.580;7.756;2024-02-14T12:08:39;12.80;99.90
53272;DHT22;39160;48.580;7.756;2024-02-14T12:13:30;12.80;99.90
53272;DHT22;39160;48.580;7.756;2024-02-14T12:18:22;13.00;99.90
53272;DHT22;39160;48.580;7.756;2024-02-14T12:23:18;13.00;99.90
53272;DHT22;39160;48.580;7.756;2024-02-14T12:28:13;13.10;99.90
53272;DHT22;39160;48.580;7.756;2024-02-14T12:33:04;13.20;99.90
53272;DHT22;39160;48.580;7.756;2024-02-14T12:37:59;13.30;99.90
53272;DHT22;39160;48.580;7.756;2024-02-14T12:42:50;13.30;99.90
53272;DHT22;39160;48.580;7.756;2024-02-14T12:47:40;13.50;99.90
53272;DHT22;39160;48.580;7.756;2024-02-14T12:52:33;13.70;99.90
53272;DHT22;39160;48.580;7.756;2024-02-14T12:57:25;13.80;99.90
53272;DHT22;39160;48.580;7.756;2024-02-14T13:02:16;13.80;99.90
53272;DHT22;39160;48.580;7.756;2024-02-14T13:07:07;13.90;99.90
53272;DHT22;39160;48.580;7.756;2024-02-14T13:11:59;13.90;99.90
53272;DHT22;39160;48.580;7.756;2024-02-14T13:16:50;13.90;99.90
53272;DHT22;39160;48.580;7.756;2024-02-14T13:21:41;13.90;99.90
53272;DHT22;39160;48.580;7.756;2024-02-14T13:26:35;13.70;99.90
53272;DHT22;39160;48.580;7.756;2024-02-14T13:31:26;13.70;99.90
53272;DHT22;39160;48.580;7.756;2024-02-14T13:36:16;13.80;99.90
53272;DHT22;39160;48.580;7.756;2024-02-14T13:41:07;13.80;99.90
53272;DHT22;39160;48.580;7.756;2024-02-14T13:45:58;13.90;99.90
53272;DHT22;39160;48.580;7.756;2024-02-14T13:50:48;13.90;99.90
53272;DHT22;39160;48.580;7.756;2024-02-14T13:55:39;14.10;99.90
53272;DHT22;39160;48.580;7.756;2024-02-14T14:00:30;14.10;99.90
53272;DHT22;39160;48.580;7.756;2024-02-14T14:05:21;14.10;99.90
53272;DHT22;39160;48.580;7.756;2024-02-14T14:10:12;14.20;99.90
53272;DHT22;39160;48.580;7.756;2024-02-14T14:15:04;14.40;99.90
53272;DHT22;39160;48.580;7.756;2024-02-14T14:19:55;14.40;99.90
53272;DHT22;39160;48.580;7.756;2024-02-14T14:24:45;14.30;99.90
53272;DHT22;39160;48.580;7.756;2024-02-14T14:29:36;14.30;99.90
53272;DHT22;39160;48.580;7.756;2024-02-14T14:34:26;14.20;99.90
53272;DHT22;39160;48.580;7.756;2024-02-14T14:39:20;14.20;99.90
53272;DHT22;39160;48.580;7.756;2024-02-14T14:44:11;14.20;99.90
53272;DHT22;39160;48.580;7.756;2024-02-14T14:49:02;14.20;99.90
53272;DHT22;39160;48.580;7.756;2024-02-14T14:53:53;14.10;99.90
53272;DHT22;39160;48.580;7.756;2024-02-14T14:58:44;14.10;99.90
53272;DHT22;39160;48.580;7.756;2024-02-14T15:03:34;14.10;99.90
53272;DHT22;39160;48.580;7.756;2024-02-14T15:08:25;14.10;99.90
53272;DHT22;39160;48.580;7.756;2024-02-14T15:13:17;14.10;99.90
53272;DHT22;39160;48.580;7.756;2024-02-14T15:18:08;14.10;99.90
53272;DHT22;39160;48.580;7.756;2024-02-14T15:22:58;14.10;99.90
53272;DHT22;39160;48.580;7.756;2024-02-14T15:27:49;14.20;99.90
53272;DHT22;39160;48.580;7.756;2024-02-14T15:32:46;14.10;99.90
53272;DHT22;39160;48.580;7.756;2024-02-14T15:37:55;14.10;99.90
53272;DHT22;39160;48.580;7.756;2024-02-14T15:42:45;14.10;99.90
53272;DHT22;39160;48.580;7.756;2024-02-14T15:47:36;14.10;99.90
53272;DHT22;39160;48.580;7.756;2024-02-14T15:52:27;14.10;99.90
53272;DHT22;39160;48.580;7.756;2024-02-14T15:57:17;14.10;99.90
53272;DHT22;39160;48.580;7.756;2024-02-14T16:02:08;14.00;99.90
53272;DHT22;39160;48.580;7.756;2024-02-14T16:07:00;14.10;99.90
53272;DHT22;39160;48.580;7.756;2024-02-14T16:11:50;14.00;99.90
53272;DHT22;39160;48.580;7.756;2024-02-14T16:16:41;14.00;99.90
53272;DHT22;39160;48.580;7.756;2024-02-14T16:21:32;14.10;99.90
53272;DHT22;39160;48.580;7.756;2024-02-14T16:26:23;14.00;99.90
53272;DHT22;39160;48.580;7.756;2024-02-14T16:31:14;14.10;99.90
53272;DHT22;39160;48.580;7.756;2024-02-14T16:36:04;14.00;99.90
53272;DHT22;39160;48.580;7.756;2024-02-14T16:40:56;14.00;99.90
53272;DHT22;39160;48.580;7.756;2024-02-14T16:45:47;14.00;99.90
53272;DHT22;39160;48.580;7.756;2024-02-14T16:50:38;14.00;99.90
53272;DHT22;39160;48.580;7.756;2024-02-14T16:55:29;14.00;99.90
53272;DHT22;39160;48.580;7.756;2024-02-14T17:00:19;14.00;99.90
53272;DHT22;39160;48.580;7.756;2024-02-14T17:05:11;14.00;99.90
53272;DHT22;39160;48.580;7.756;2024-02-14T17:10:01;14.00;99.90
53272;DHT22;39160;48.580;7.756;2024-02-14T17:14:52;14.00;99.90
53272;DHT22;39160;48.580;7.756;2024-02-14T17:19:44;14.00;99.90
53272;DHT22;39160;48.580;7.756;2024-02-14T17:24:34;14.00;99.90
53272;DHT22;39160;48.580;7.756;2024-02-14T17:29:25;14.00;99.90
53272;DHT22;39160;48.580;7.756;2024-02-14T17:34:16;14.00;99.90
53272;DHT22;39160;48.580;7.756;2024-02-14T17:39:07;14.00;99.90
53272;DHT22;39160;48.580;7.756;2024-02-14T17:43:59;14.00;99.90
53272;DHT22;39160;48.580;7.756;2024-02-14T17:48:51;14.00;99.90
53272;DHT22;39160;48.580;7.756;2024-02-14T17:53:42;14.00;99.90
53272;DHT22;39160;48.580;7.756;2024-02-14T17:58:35;14.00;99.90
53272;DHT22;39160;48.580;7.756;2024-02-14T18:03:26;14.00;99.90
53272;DHT22;39160;48.580;7.756;2024-02-14T18:08:17;14.00;99.90
53272;DHT22;39160;48.580;7.756;2024-02-14T18:13:08;13.90;99.90
53272;DHT22;39160;48.580;7.756;2024-02-14T18:17:59;14.00;99.90
53272;DHT22;39160;48.580;7.756;2024-02-14T18:22:50;14.00;99.90
53272;DHT22;39160;48.580;7.756;2024-02-14T18:27:41;14.00;99.90
53272;DHT22;39160;48.580;7.756;2024-02-14T18:32:32;14.00;99.90
53272;DHT22;39160;48.580;7.756;2024-02-14T18:37:23;14.00;99.90
53272;DHT22;39160;48.580;7.756;2024-02-14T18:42:15;14.00;99.90
53272;DHT22;39160;48.580;7.756;2024-02-14T18:47:05;14.00;99.90
53272;DHT22;39160;48.580;7.756;2024-02-14T18:51:56;14.00;99.90
53272;DHT22;39160;48.580;7.756;2024-02-14T18:56:46;14.00;99.90
53272;DHT22;39160;48.580;7.756;2024-02-14T19:01:38;14.00;99.90
53272;DHT22;39160;48.580;7.756;2024-02-14T19:06:29;14.00;99.90
53272;DHT22;39160;48.580;7.756;2024-02-14T19:11:21;14.00;99.90
53272;DHT22;39160;48.580;7.756;2024-02-14T19:16:11;14.00;99.90
53272;DHT22;39160;48.580;7.756;2024-02-14T19:21:02;14.00;99.90
53272;DHT22;39160;48.580;7.756;2024-02-14T19:25:53;14.00;99.90
53272;DHT22;39160;48.580;7.756;2024-02-14T19:30:45;14.00;99.90
53272;DHT22;39160;48.580;7.756;2024-02-14T19:35:35;14.00;99.90
53272;DHT22;39160;48.580;7.756;2024-02-14T19:40:26;13.90;99.90
53272;DHT22;39160;48.580;7.756;2024-02-14T19:45:17;14.00;99.90
53272;DHT22;39160;48.580;7.756;2024-02-14T19:50:08;14.00;99.90
53272;DHT22;39160;48.580;7.756;2024-02-14T19:55:01;14.00;99.90
53272;DHT22;39160;48.580;7.756;2024-02-14T19:59:53;14.00;99.90
53272;DHT22;39160;48.580;7.756;2024-02-14T20:04:44;13.90;99.90
53272;DHT22;39160;48.580;7.756;2024-02-14T20:09:34;13.90;99.90
53272;DHT22;39160;48.580;7.756;2024-02-14T20:14:25;13.90;99.90
53272;DHT22;39160;48.580;7.756;2024-02-14T20:19:16;13.90;99.90
53272;DHT22;39160;48.580;7.756;2024-02-14T20:24:06;14.00;99.90
53272;DHT22;39160;48.580;7.756;2024-02-14T20:28:59;14.00;99.90
53272;DHT22;39160;48.580;7.756;2024-02-14T20:33:50;14.00;99.90
53272;DHT22;39160;48.580;7.756;2024-02-14T20:38:41;13.90;99.90
53272;DHT22;39160;48.580;7.756;2024-02-14T20:43:32;13.90;99.90
53272;DHT22;39160;48.580;7.756;2024-02-14T20:48:23;13.90;99.90
53272;DHT22;39160;48.580;7.756;2024-02-14T20:53:14;13.90;99.90
53272;DHT22;39160;48.580;7.756;2024-02-14T20:58:05;14.10;99.90
53272;DHT22;39160;48.580;7.756;2024-02-14T21:02:56;14.20;99.90
53272;DHT22;39160;48.580;7.756;2024-02-14T21:07:47;14.10;99.90
53272;DHT22;39160;48.580;7.756;2024-02-14T21:12:38;14.10;99.90
53272;DHT22;39160;48.580;7.756;2024-02-14T21:17:28;13.90;99.90
53272;DHT22;39160;48.580;7.756;2024-02-14T21:22:19;13.90;99.90
53272;DHT22;39160;48.580;7.756;2024-02-14T21:27:10;13.80;99.90
53272;DHT22;39160;48.580;7.756;2024-02-14T21:32:00;13.80;99.90
53272;DHT22;39160;48.580;7.756;2024-02-14T21:36:51;13.70;99.90
53272;DHT22;39160;48.580;7.756;2024-02-14T21:41:42;13.80;99.90
53272;DHT22;39160;48.580;7.756;2024-02-14T21:46:35;13.70;99.90
53272;DHT22;39160;48.580;7.756;2024-02-14T21:51:26;13.70;99.90
53272;DHT22;39160;48.580;7.756;2024-02-14T21:56:18;13.70;99.90
53272;DHT22;39160;48.580;7.756;2024-02-14T22:01:09;13.60;99.90
53272;DHT22;39160;48.580;7.756;2024-02-14T22:06:00;13.60;99.90
53272;DHT22;39160;48.580;7.756;2024-02-14T22:10:51;13.60;99.90
53272;DHT22;39160;48.580;7.756;2024-02-14T22:15:43;13.60;99.90
53272;DHT22;39160;48.580;7.756;2024-02-14T22:20:33;13.50;99.90
53272;DHT22;39160;48.580;7.756;2024-02-14T22:25:25;13.50;99.90
53272;DHT22;39160;48.580;7.756;2024-02-14T22:30:15;13.70;99.90
53272;DHT22;39160;48.580;7.756;2024-02-14T22:35:06;13.70;99.90
53272;DHT22;39160;48.580;7.756;2024-02-14T22:39:57;13.60;99.90
53272;DHT22;39160;48.580;7.756;2024-02-14T22:44:48;13.60;99.90
53272;DHT22;39160;48.580;7.756;2024-02-14T22:49:41;13.60;99.90
53272;DHT22;39160;48.580;7.756;2024-02-14T22:54:32;13.60;99.90
53272;DHT22;39160;48.580;7.756;2024-02-14T22:59:23;13.50;99.90
53272;DHT22;39160;48.580;7.756;2024-02-14T23:04:13;13.50;99.90
53272;DHT22;39160;48.580;7.756;2024-02-14T23:09:04;13.50;99.90
53272;DHT22;39160;48.580;7.756;2024-02-14T23:13:55;13.50;99.90
53272;DHT22;39160;48.580;7.756;2024-02-14T23:18:45;13.40;99.90
53272;DHT22;39160;48.580;7.756;2024-02-14T23:23:37;13.40;99.90
53272;DHT22;39160;48.580;7.756;2024-02-14T23:28:28;13.40;99.90
53272;DHT22;39160;48.580;7.756;2024-02-14T23:33:18;13.30;99.90
53272;DHT22;39160;48.580;7.756;2024-02-14T23:38:09;13.30;99.90
53272;DHT22;39160;48.580;7.756;2024-02-14T23:43:01;13.30;99.90
53272;DHT22;39160;48.580;7.756;2024-02-14T23:47:54;13.30;99.90
53272;DHT22;39160;48.580;7.756;2024-02-14T23:52:44;13.20;99.90
53272;DHT22;39160;48.580;7.756;2024-02-14T23:57:35;13.20;99.90
